Date,TemperatureHighF,TemperatureAvgF,TemperatureLowF,DewpointHighF,DewpointAvgF,DewpointLowF,HumidityHigh,HumidityAvg,HumidityLow,PressureMaxIn,PressureMinIn,WindSpeedMaxMPH,WindSpeedAvgMPH,GustSpeedMaxMPH,PrecipitationSumIn
2013-1-1,40.5,37.6,32.9,34.4,31.4,22.8,90,79,56,30.00,29.88,5,0,0,0.00
2013-1-2,31.7,31.7,31.7,19.8,19.6,19.1,61,60,60,30.14,30.14,5,4,0,0.00
2013-1-3,30.9,28.6,26.3,22.8,21.8,20.0,81,75,69,30.18,30.16,5,0,0,0.00
2013-1-6,44.1,37.8,26.1,32.7,29.7,24.9,96,74,57,30.14,30.04,6,1,0,0.00
2013-1-11,36.6,36.5,36.5,36.1,36.0,36.0,98,98,98,30.07,30.07,0,0,0,0.00
2013-1-12,51.2,40.2,36.1,49.9,39.8,35.6,99,99,95,30.14,30.07,2,0,0,0.01
2013-1-18,30.0,27.2,25.0,23.5,21.4,20.1,83,78,70,30.43,30.42,2,0,0,0.00
2013-1-19,56.6,43.4,22.6,31.6,26.7,20.4,93,57,32,30.38,30.08,16,5,21,0.00
2013-2-3,37.3,32.8,27.1,29.1,21.9,13.9,92,65,54,29.97,29.78,17,4,21,0.00
2013-2-4,27.1,24.6,20.2,14.6,12.4,10.7,70,59,55,30.01,29.96,13,3,16,0.00
2013-3-6,38.1,36.4,33.2,34.3,32.1,29.5,97,85,72,30.05,29.74,14,6,16,0.44
2013-3-16,64.7,47.2,34.7,53.7,42.6,31.2,98,84,60,29.83,29.56,20,2,20,0.19
2013-7-27,74.1,71.4,68.8,69.6,68.1,66.5,93,89,83,29.91,29.87,15,1,17,0.08
2013-7-28,88.2,74.6,65.4,71.0,67.0,64.5,99,79,51,29.92,29.83,7,1,0,0.01
2013-8-2,85.7,73.2,63.5,66.1,62.8,59.0,96,74,43,29.95,29.89,4,0,0,0.00
2013-8-3,79.2,68.1,60.1,70.7,64.4,59.2,97,89,66,29.95,29.88,5,0,0,0.04
2013-8-4,80.8,69.0,58.2,67.5,59.2,52.3,100,75,41,30.01,29.92,12,1,14,0.00
2013-8-10,88.6,75.2,68.5,74.1,71.0,68.2,100,88,59,30.04,29.93,6,0,0,0.31
2013-8-11,89.0,76.4,69.8,74.5,71.0,68.6,99,85,56,30.06,29.93,6,1,0,0.01
2013-8-17,77.3,72.3,64.6,63.4,60.9,57.8,93,69,53,30.21,30.16,6,1,0,0.01
2013-8-18,68.6,65.9,63.5,63.7,61.8,59.6,89,87,83,30.22,30.15,4,0,0,0.46
2013-11-26,34.2,33.5,32.8,33.3,32.7,32.0,98,97,97,29.83,29.70,9,2,0,1.67
2013-12-6,40.1,39.1,37.8,39.3,38.3,37.0,98,97,97,30.13,29.99,8,3,0,1.27
2013-12-7,40.4,34.8,24.2,36.9,31.0,22.8,97,86,66,30.52,30.09,10,2,0,0.00
2013-12-8,27.4,25.1,23.0,26.5,23.3,21.8,97,93,80,30.55,30.30,7,1,0,0.00
2013-12-27,24.4,24.1,23.7,21.3,21.1,20.8,89,88,87,30.35,30.35,0,0,0,0.00
2013-12-28,56.5,36.0,19.6,30.9,25.0,17.7,94,68,31,30.35,30.11,9,1,0,0.00
2013-12-29,48.2,41.1,35.8,46.2,38.3,30.2,99,90,72,30.11,29.58,7,1,0,1.44
2013-12-31,31.6,25.2,20.5,20.0,18.5,16.2,89,76,53,30.31,30.23,4,0,0,0.00
2014-1-1,52.7,33.4,20.2,30.2,24.0,17.9,93,71,37,30.38,30.12,12,1,0,0.00
2014-1-2,29.6,28.6,26.6,28.3,27.4,25.5,97,95,95,29.67,29.63,3,0,0,0.00